createdAt,value
2019-03-27T00:00:06.749Z,11.00
2019-03-27T00:02:32.587Z,9.40
2019-03-27T00:04:58.413Z,8.80
2019-03-27T00:07:24.247Z,7.33
2019-03-27T00:09:50.077Z,7.83
2019-03-27T00:12:15.902Z,8.63
2019-03-27T00:14:44.704Z,9.13
2019-03-27T00:17:10.564Z,8.87
2019-03-27T00:19:36.383Z,9.97
2019-03-27T00:22:02.302Z,8.70
2019-03-27T00:24:28.153Z,10.10
2019-03-27T00:26:53.973Z,9.03
2019-03-27T00:29:20.117Z,9.67
2019-03-27T00:31:45.939Z,9.50
2019-03-27T00:34:11.761Z,8.80
2019-03-27T00:36:37.563Z,10.57
2019-03-27T00:39:04.589Z,10.10
2019-03-27T00:41:30.399Z,11.70
2019-03-27T00:43:56.227Z,11.37
2019-03-27T00:46:22.343Z,9.00
2019-03-27T00:48:48.164Z,9.80
2019-03-27T00:51:14.006Z,10.50
2019-03-27T00:53:39.835Z,10.17
2019-03-27T00:56:05.655Z,9.23
2019-03-27T00:58:31.473Z,10.60
2019-03-27T01:01:09.056Z,9.60
2019-03-27T01:03:34.989Z,11.10
2019-03-27T01:06:01.717Z,8.27
2019-03-27T01:39:48.803Z,8.67
2019-03-27T01:42:14.738Z,11.00
2019-03-27T01:44:40.736Z,9.33
2019-03-27T01:47:06.563Z,10.03
2019-03-27T01:49:32.411Z,11.03
2019-03-27T01:51:58.244Z,9.57
2019-03-27T01:54:24.108Z,9.60
2019-03-27T01:56:49.978Z,10.83
2019-03-27T01:59:15.835Z,9.30
2019-03-27T02:01:41.683Z,9.33
2019-03-27T02:04:07.548Z,10.60
2019-03-27T02:06:33.383Z,12.77
2019-03-27T02:08:59.224Z,10.27
2019-03-27T02:11:25.054Z,10.37
2019-03-27T02:13:50.885Z,9.50
2019-03-27T02:16:16.739Z,9.83
2019-03-27T02:18:42.564Z,8.30
2019-03-27T02:21:08.713Z,9.53
2019-03-27T02:23:34.750Z,10.27
2019-03-27T02:26:00.623Z,9.40
2019-03-27T02:28:26.444Z,10.17
2019-03-27T02:30:52.297Z,9.40
2019-03-27T02:33:18.125Z,9.00
2019-03-27T02:35:43.970Z,9.73
2019-03-27T02:38:09.792Z,8.67
2019-03-27T02:40:35.657Z,8.73
2019-03-27T02:43:01.493Z,10.23
2019-03-27T02:45:27.346Z,8.90
2019-03-27T02:47:53.191Z,9.67
2019-03-27T02:50:19.063Z,9.47
2019-03-27T02:52:44.912Z,8.43
2019-03-27T02:55:10.783Z,9.50
2019-03-27T02:57:36.599Z,9.20
2019-03-27T03:00:08.357Z,10.07
2019-03-27T03:02:34.191Z,9.40
2019-03-27T03:05:00.035Z,9.80
2019-03-27T03:07:25.873Z,7.90
2019-03-27T03:09:51.730Z,10.53
2019-03-27T03:12:17.574Z,8.70
2019-03-27T03:14:43.393Z,8.80
2019-03-27T03:17:09.244Z,8.87
2019-03-27T03:19:35.083Z,9.47
2019-03-27T03:22:00.933Z,11.43
2019-03-27T03:24:26.741Z,9.57
2019-03-27T03:26:52.595Z,8.67
2019-03-27T03:29:18.439Z,9.97
2019-03-27T03:31:44.353Z,9.60
2019-03-27T03:34:10.183Z,8.87
2019-03-27T03:36:36.018Z,8.50
2019-03-27T03:39:01.952Z,9.30
2019-03-27T03:41:27.782Z,8.83
2019-03-27T03:43:53.728Z,9.53
2019-03-27T03:46:19.559Z,11.00
2019-03-27T03:48:45.410Z,9.17
2019-03-27T03:51:11.628Z,9.43
2019-03-27T03:53:37.496Z,9.17
2019-03-27T03:56:03.726Z,10.03
2019-03-27T03:58:30.868Z,9.47
2019-03-27T04:00:58.919Z,9.10
2019-03-27T04:03:25.391Z,9.80
2019-03-27T04:05:51.526Z,9.60
2019-03-27T04:08:17.358Z,10.67
2019-03-27T04:10:43.320Z,9.80
2019-03-27T04:13:09.118Z,10.00
2019-03-27T04:15:34.995Z,10.00
2019-03-27T04:18:00.917Z,9.93
2019-03-27T04:20:26.781Z,10.00
2019-03-27T04:22:52.634Z,11.40
2019-03-27T04:25:21.508Z,9.83
2019-03-27T04:27:47.398Z,10.70
2019-03-27T04:30:13.403Z,10.30
2019-03-27T04:32:39.257Z,9.10
2019-03-27T04:35:05.596Z,9.77
2019-03-27T04:37:31.449Z,10.67
2019-03-27T04:39:57.310Z,9.73
2019-03-27T04:42:23.145Z,11.00
2019-03-27T04:44:48.970Z,10.97
2019-03-27T04:47:14.822Z,11.70
2019-03-27T04:49:40.644Z,9.70
2019-03-27T04:52:06.521Z,8.50
2019-03-27T04:54:32.373Z,10.77
2019-03-27T04:56:58.231Z,8.80
2019-03-27T04:59:24.080Z,9.83
2019-03-27T05:01:49.910Z,9.50
2019-03-27T05:04:15.961Z,9.80
2019-03-27T05:06:41.806Z,9.73
2019-03-27T05:09:07.657Z,10.27
2019-03-27T05:11:33.486Z,9.80
2019-03-27T05:13:59.343Z,11.60
2019-03-27T05:16:25.196Z,9.57
2019-03-27T05:18:51.045Z,8.83
2019-03-27T05:21:16.882Z,7.37
2019-03-27T05:23:42.740Z,10.03
2019-03-27T05:26:08.582Z,10.83
2019-03-27T05:28:34.406Z,10.03
2019-03-27T05:31:00.246Z,8.90
2019-03-27T05:33:26.115Z,11.53
2019-03-27T05:35:51.932Z,8.90
2019-03-27T05:38:17.770Z,10.20
2019-03-27T05:40:43.709Z,9.77
2019-03-27T05:43:09.564Z,9.77
2019-03-27T05:45:35.397Z,9.73
2019-03-27T05:48:01.246Z,10.87
2019-03-27T05:50:27.076Z,10.50
2019-03-27T05:52:52.935Z,9.63
2019-03-27T05:55:18.772Z,9.07
2019-03-27T05:57:44.613Z,9.90
2019-03-27T06:00:11.967Z,9.13
2019-03-27T06:02:37.820Z,9.30
2019-03-27T06:05:03.738Z,9.57
2019-03-27T06:07:29.554Z,10.87
2019-03-27T06:09:55.482Z,9.70
2019-03-27T06:12:21.318Z,9.07
2019-03-27T06:14:47.148Z,9.10
2019-03-27T06:17:13.009Z,9.80
2019-03-27T06:19:38.847Z,9.10
2019-03-27T06:22:04.710Z,7.80
2019-03-27T06:24:30.548Z,9.30
2019-03-27T06:26:56.413Z,8.40
2019-03-27T06:29:22.255Z,8.80
2019-03-27T06:31:48.092Z,7.57
2019-03-27T06:34:13.919Z,7.43
2019-03-27T06:36:39.802Z,7.87
2019-03-27T06:39:05.725Z,8.40
2019-03-27T06:41:31.598Z,8.40
2019-03-27T06:43:57.443Z,7.50
2019-03-27T06:46:23.292Z,7.80
2019-03-27T06:48:49.158Z,7.87
2019-03-27T06:51:15.308Z,7.77
2019-03-27T06:53:41.194Z,7.43
2019-03-27T06:56:07.023Z,7.93
2019-03-27T06:58:32.866Z,7.83
2019-03-27T07:00:58.688Z,7.90
2019-03-27T07:03:24.541Z,7.47
2019-03-27T07:05:50.369Z,7.73
2019-03-27T07:08:16.223Z,9.27
2019-03-27T07:10:42.173Z,7.20
2019-03-27T07:13:08.098Z,7.70
2019-03-27T07:15:35.665Z,7.90
2019-03-27T07:18:01.670Z,7.73
2019-03-27T07:20:27.526Z,7.53
2019-03-27T07:22:53.383Z,7.03
2019-03-27T07:25:19.314Z,8.67
2019-03-27T07:27:45.158Z,8.07
2019-03-27T07:30:11.508Z,7.70
2019-03-27T07:32:37.371Z,8.80
2019-03-27T07:35:04.135Z,7.40
2019-03-27T07:37:29.996Z,6.23
2019-03-27T07:39:55.861Z,8.07
2019-03-27T07:42:21.716Z,7.87
2019-03-27T07:44:47.618Z,6.70
2019-03-27T07:47:13.481Z,9.03
2019-03-27T07:49:39.313Z,7.63
2019-03-27T07:52:05.172Z,7.23
2019-03-27T07:54:31.031Z,6.70
2019-03-27T07:56:56.997Z,7.70
2019-03-27T07:59:22.834Z,6.90
2019-03-27T08:01:48.746Z,6.00
2019-03-27T08:04:14.736Z,5.67
2019-03-27T08:06:40.620Z,6.43
2019-03-27T08:09:06.778Z,8.37
2019-03-27T08:11:32.680Z,7.83
2019-03-27T08:13:58.573Z,8.30
2019-03-27T08:16:24.398Z,8.73
2019-03-27T08:18:50.249Z,8.67
2019-03-27T08:21:16.080Z,7.70
2019-03-27T08:23:41.971Z,7.63
2019-03-27T08:26:07.821Z,7.63
2019-03-27T08:28:33.693Z,6.17
2019-03-27T08:30:59.521Z,5.90
2019-03-27T08:33:25.380Z,7.03
2019-03-27T08:35:51.212Z,6.50
2019-03-27T08:38:17.070Z,5.90
2019-03-27T08:40:42.897Z,6.20
2019-03-27T08:43:20.757Z,5.07
2019-03-27T08:45:36.516Z,6.40
2019-03-27T08:48:02.979Z,5.37
2019-03-27T08:50:28.913Z,4.93
2019-03-27T08:52:54.750Z,5.87
2019-03-27T08:55:20.595Z,5.23
2019-03-27T08:57:46.436Z,5.93
2019-03-27T09:00:14.475Z,4.80
2019-03-27T09:02:40.351Z,4.67
2019-03-27T09:05:07.663Z,4.90
2019-03-27T09:07:33.595Z,4.80
2019-03-27T09:09:59.443Z,4.23
2019-03-27T09:12:25.267Z,5.17
2019-03-27T09:14:51.126Z,7.33
2019-03-27T09:17:16.966Z,7.40
2019-03-27T09:19:42.870Z,6.90
2019-03-27T09:22:08.697Z,7.30
2019-03-27T09:24:34.624Z,6.57
2019-03-27T09:27:00.465Z,8.23
2019-03-27T09:29:26.281Z,4.93
2019-03-27T09:31:52.141Z,7.33
2019-03-27T09:34:17.982Z,7.20
2019-03-27T09:36:43.841Z,6.60
2019-03-27T09:39:09.677Z,6.80
2019-03-27T09:41:35.563Z,6.00
2019-03-27T09:44:01.422Z,6.97
2019-03-27T09:46:27.264Z,6.67
2019-03-27T09:48:53.123Z,6.83
2019-03-27T09:51:18.964Z,6.10
2019-03-27T09:53:44.824Z,7.30
2019-03-27T09:56:18.915Z,5.87
2019-03-27T09:58:38.442Z,6.40
2019-03-27T10:01:04.690Z,6.43
2019-03-27T10:03:30.539Z,6.33
2019-03-27T10:05:56.386Z,6.07
2019-03-27T10:08:22.328Z,5.13
2019-03-27T10:10:48.873Z,5.53
2019-03-27T10:13:14.718Z,5.03
2019-03-27T10:15:40.556Z,6.03
2019-03-27T10:18:06.390Z,4.77
2019-03-27T10:20:32.219Z,4.93
2019-03-27T10:22:58.082Z,5.57
2019-03-27T10:25:24.014Z,5.50
2019-03-27T10:27:49.933Z,5.17
2019-03-27T10:30:15.948Z,6.23
2019-03-27T10:32:41.803Z,6.27
2019-03-27T10:35:07.855Z,5.70
2019-03-27T10:37:33.705Z,6.13
2019-03-27T10:39:59.556Z,5.10
2019-03-27T10:42:25.425Z,5.70
2019-03-27T10:44:51.264Z,6.23
2019-03-27T10:47:17.101Z,5.60
2019-03-27T10:49:42.947Z,5.30
2019-03-27T10:52:08.875Z,5.30
2019-03-27T10:54:34.742Z,5.60
2019-03-27T10:57:00.591Z,6.30
2019-03-27T10:59:26.449Z,5.93
2019-03-27T11:01:52.341Z,5.70
2019-03-27T11:04:18.209Z,5.97
2019-03-27T11:06:44.102Z,5.80
2019-03-27T11:09:10.368Z,6.70
2019-03-27T11:11:36.209Z,5.70
2019-03-27T11:14:02.072Z,5.80
2019-03-27T11:16:27.998Z,5.80
2019-03-27T11:18:53.833Z,5.77
2019-03-27T11:21:19.695Z,4.90
2019-03-27T11:23:45.551Z,5.30
2019-03-27T11:26:11.386Z,5.07
2019-03-27T11:28:37.499Z,5.37
2019-03-27T11:31:03.463Z,5.80
2019-03-27T11:33:29.304Z,5.80
2019-03-27T11:35:55.147Z,5.40
2019-03-27T11:38:20.977Z,5.53
2019-03-27T11:40:46.822Z,5.77
2019-03-27T11:43:12.669Z,5.43
2019-03-27T11:45:38.726Z,6.03
2019-03-27T11:48:07.961Z,5.90
2019-03-27T11:50:44.054Z,6.60
2019-03-27T11:53:00.520Z,5.33
2019-03-27T11:55:26.627Z,6.40
2019-03-27T11:57:52.483Z,6.20
2019-03-27T12:00:19.030Z,6.10
2019-03-27T12:02:44.873Z,6.20
2019-03-27T12:05:10.840Z,5.40
2019-03-27T12:07:36.672Z,5.50
2019-03-27T12:10:05.443Z,5.70
2019-03-27T12:12:31.345Z,4.97
2019-03-27T12:14:57.233Z,5.80
2019-03-27T12:17:23.112Z,5.67
2019-03-27T12:19:48.936Z,5.37
2019-03-27T12:22:14.771Z,5.47
2019-03-27T12:24:40.626Z,5.37
2019-03-27T12:27:06.450Z,6.00
2019-03-27T12:29:32.304Z,6.57
2019-03-27T12:31:58.141Z,5.10
2019-03-27T12:34:24.286Z,5.67
2019-03-27T12:36:50.117Z,5.33
2019-03-27T12:39:15.987Z,4.60
2019-03-27T12:41:41.807Z,4.37
2019-03-27T12:44:07.642Z,3.20
2019-03-27T12:46:33.499Z,4.90
2019-03-27T12:48:59.356Z,4.20
2019-03-27T12:51:25.213Z,4.40
2019-03-27T12:53:51.054Z,3.90
2019-03-27T12:56:16.908Z,6.20
2019-03-27T12:58:42.759Z,4.43
2019-03-27T13:01:08.628Z,5.10
2019-03-27T13:03:34.468Z,4.47
2019-03-27T13:06:00.312Z,4.50
2019-03-27T13:08:26.248Z,3.90
2019-03-27T13:10:52.093Z,4.17
2019-03-27T13:13:17.933Z,4.17
2019-03-27T13:15:43.761Z,3.47
2019-03-27T13:18:09.616Z,3.67
2019-03-27T13:20:35.462Z,4.00
2019-03-27T13:23:01.322Z,3.87
2019-03-27T13:25:27.169Z,5.07
2019-03-27T13:27:53.037Z,4.43
2019-03-27T13:30:19.174Z,4.80
2019-03-27T13:32:45.102Z,4.00
2019-03-27T13:35:11.859Z,4.30
2019-03-27T13:37:37.725Z,4.23
2019-03-27T13:40:06.485Z,4.63
2019-03-27T13:42:32.332Z,5.47
2019-03-27T13:44:58.165Z,4.67
2019-03-27T13:47:24.014Z,5.07
2019-03-27T13:49:49.855Z,4.23
2019-03-27T13:52:15.689Z,3.60
2019-03-27T13:54:41.556Z,4.03
2019-03-27T13:57:07.410Z,3.43
2019-03-27T13:59:33.254Z,3.80
2019-03-27T14:01:59.102Z,4.67
2019-03-27T14:04:24.936Z,4.27
2019-03-27T14:06:50.788Z,4.03
2019-03-27T14:09:16.619Z,4.00
2019-03-27T14:11:42.486Z,4.00
2019-03-27T14:14:11.470Z,3.90
2019-03-27T14:16:36.065Z,3.30
2019-03-27T14:19:01.921Z,3.47
2019-03-27T14:21:27.749Z,3.77
2019-03-27T14:23:53.615Z,3.83
2019-03-27T14:26:19.607Z,4.03
2019-03-27T14:28:45.604Z,3.73
2019-03-27T14:31:11.805Z,4.37
2019-03-27T14:33:37.723Z,4.53
2019-03-27T14:36:03.674Z,4.57
2019-03-27T14:38:29.539Z,3.77
2019-03-27T14:40:55.426Z,4.00
2019-03-27T14:43:21.305Z,4.23
2019-03-27T14:45:47.329Z,4.03
2019-03-27T14:48:13.200Z,4.90
2019-03-27T14:50:39.047Z,4.60
2019-03-27T14:53:05.043Z,4.20
2019-03-27T14:55:30.912Z,4.43
2019-03-27T14:57:56.888Z,4.73
2019-03-27T15:00:22.729Z,4.30
2019-03-27T15:02:48.573Z,4.03
2019-03-27T15:05:14.484Z,5.70
2019-03-27T15:07:40.367Z,4.83
2019-03-27T15:10:08.044Z,3.90
2019-03-27T15:12:34.017Z,5.23
2019-03-27T15:14:59.887Z,4.70
2019-03-27T15:17:25.744Z,4.00
2019-03-27T15:19:51.601Z,4.17
2019-03-27T15:22:22.799Z,4.83
2019-03-27T15:24:45.350Z,4.20
2019-03-27T15:27:11.211Z,4.47
2019-03-27T15:29:37.097Z,4.70
2019-03-27T15:32:03.153Z,4.53
2019-03-27T15:34:29.049Z,4.20
2019-03-27T15:36:54.926Z,3.83
2019-03-27T15:39:20.877Z,4.03
2019-03-27T15:41:46.735Z,4.10
2019-03-27T15:44:12.636Z,3.80
2019-03-27T15:46:38.528Z,4.50
2019-03-27T15:49:04.399Z,3.97
2019-03-27T15:51:30.236Z,3.60
2019-03-27T15:53:56.089Z,3.33
2019-03-27T15:56:21.952Z,3.77
2019-03-27T15:58:47.854Z,4.60
2019-03-27T16:01:13.714Z,4.07
2019-03-27T16:03:39.652Z,3.70
2019-03-27T16:06:05.632Z,4.20
2019-03-27T16:08:31.480Z,4.60
2019-03-27T16:10:57.329Z,4.47
2019-03-27T16:13:23.163Z,4.40
2019-03-27T16:15:49.142Z,5.50
2019-03-27T16:18:16.831Z,4.27
2019-03-27T16:20:42.770Z,4.07
2019-03-27T16:23:08.726Z,4.57
2019-03-27T16:25:35.043Z,4.13
2019-03-27T16:28:00.927Z,4.80
2019-03-27T16:30:26.845Z,4.37
2019-03-27T16:32:52.692Z,3.73
2019-03-27T16:35:18.537Z,4.20
2019-03-27T16:37:44.473Z,5.00
2019-03-27T16:40:10.829Z,4.27
2019-03-27T16:42:36.683Z,4.03
2019-03-27T16:45:04.859Z,4.50
2019-03-27T16:47:30.741Z,4.17
2019-03-27T16:49:56.597Z,4.47
2019-03-27T16:52:22.476Z,3.90
2019-03-27T16:54:48.339Z,4.00
2019-03-27T16:57:14.169Z,5.23
2019-03-27T16:59:40.020Z,4.33
2019-03-27T17:02:06.176Z,3.80
2019-03-27T17:04:32.095Z,3.87
2019-03-27T17:06:57.947Z,4.50
2019-03-27T17:09:23.816Z,4.00
2019-03-27T17:11:49.707Z,4.03
2019-03-27T17:14:15.548Z,4.50
2019-03-27T17:16:41.441Z,3.57
2019-03-27T17:19:07.290Z,3.80
2019-03-27T17:21:33.148Z,4.20
2019-03-27T17:23:58.992Z,4.07
2019-03-27T17:26:24.845Z,4.23
2019-03-27T17:28:50.666Z,3.37
2019-03-27T17:31:16.522Z,3.43
2019-03-27T17:33:42.357Z,3.60
2019-03-27T17:36:08.201Z,3.30
2019-03-27T17:38:34.054Z,4.10
2019-03-27T17:40:59.877Z,4.03
2019-03-27T17:43:25.729Z,4.23
2019-03-27T17:45:51.571Z,3.60
2019-03-27T17:48:17.457Z,4.60
2019-03-27T17:50:43.388Z,3.83
2019-03-27T17:53:09.243Z,4.43
2019-03-27T17:55:35.114Z,3.57
2019-03-27T17:58:00.995Z,4.30
2019-03-27T18:00:42.547Z,4.30
2019-03-27T18:03:08.439Z,3.90
2019-03-27T18:05:34.273Z,4.20
2019-03-27T18:08:00.149Z,4.43
2019-03-27T18:10:25.992Z,3.93
2019-03-27T18:12:51.832Z,4.30
2019-03-27T18:15:17.688Z,6.00
2019-03-27T18:17:43.537Z,7.50
2019-03-27T18:20:09.593Z,6.90
2019-03-27T18:22:35.435Z,4.27
2019-03-27T18:25:01.274Z,4.60
2019-03-27T18:27:27.120Z,13.07
2019-03-27T18:29:52.970Z,11.63
2019-03-27T18:32:18.839Z,10.17
2019-03-27T18:34:44.716Z,12.33
2019-03-27T18:37:10.599Z,12.13
2019-03-27T18:39:36.476Z,13.03
2019-03-27T18:42:02.518Z,11.67
2019-03-27T18:44:28.495Z,11.30
2019-03-27T18:46:55.386Z,13.50
2019-03-27T18:49:21.443Z,13.60
2019-03-27T18:51:47.432Z,12.07
2019-03-27T18:54:13.288Z,12.43
2019-03-27T18:56:39.168Z,10.17
2019-03-27T18:59:05.009Z,10.33
2019-03-27T19:01:30.972Z,11.87
2019-03-27T19:03:56.918Z,9.90
2019-03-27T19:06:22.792Z,8.60
2019-03-27T19:08:48.671Z,7.50
2019-03-27T19:11:14.518Z,6.67
2019-03-27T19:13:40.362Z,7.90
2019-03-27T19:16:06.310Z,9.30
2019-03-27T19:18:32.261Z,8.77
2019-03-27T19:20:58.133Z,8.60
2019-03-27T19:23:23.984Z,9.63
2019-03-27T19:25:50.066Z,9.93
2019-03-27T19:28:15.936Z,9.80
2019-03-27T19:30:41.794Z,8.57
2019-03-27T19:33:07.685Z,8.17
2019-03-27T19:35:33.558Z,9.87
2019-03-27T19:37:59.623Z,10.07
2019-03-27T19:40:25.462Z,11.70
2019-03-27T19:42:51.330Z,12.77
2019-03-27T19:45:17.286Z,14.13
2019-03-27T19:47:43.224Z,15.17
2019-03-27T19:50:09.293Z,16.13
2019-03-27T19:52:35.182Z,15.07
2019-03-27T19:55:01.075Z,16.17
2019-03-27T19:57:27.042Z,14.73
2019-03-27T19:59:53.039Z,14.30
2019-03-27T20:02:18.899Z,8.90
2019-03-27T20:04:44.807Z,5.93
2019-03-27T20:07:10.790Z,4.80
2019-03-27T20:09:36.643Z,5.93
2019-03-27T20:12:02.742Z,6.93
2019-03-27T20:14:28.720Z,6.60
2019-03-27T20:16:54.882Z,6.77
2019-03-27T20:19:20.754Z,5.67
2019-03-27T20:21:46.624Z,4.97
2019-03-27T20:24:12.476Z,4.47
2019-03-27T20:26:38.463Z,4.50
2019-03-27T20:29:04.427Z,4.67
2019-03-27T20:31:30.290Z,6.07
2019-03-27T20:33:56.134Z,52.73
2019-03-27T20:36:22.008Z,27.23
2019-03-27T20:38:47.865Z,12.23
2019-03-27T20:41:13.712Z,6.90
2019-03-27T20:43:39.604Z,4.50
2019-03-27T20:46:05.479Z,5.40
2019-03-27T20:48:31.372Z,5.33
2019-03-27T20:50:57.252Z,7.07
2019-03-27T20:53:23.152Z,6.77
2019-03-27T20:55:49.024Z,7.87
2019-03-27T20:58:14.874Z,6.73
2019-03-27T21:00:40.917Z,6.03
2019-03-27T21:03:06.908Z,6.60
2019-03-27T21:05:35.120Z,6.03
2019-03-27T21:08:00.577Z,6.53
2019-03-27T21:10:26.448Z,5.70
2019-03-27T21:12:52.293Z,5.50
2019-03-27T21:15:18.169Z,5.67
2019-03-27T21:17:44.012Z,5.30
2019-03-27T21:20:09.956Z,5.30
2019-03-27T21:22:35.867Z,6.40
2019-03-27T21:25:08.490Z,6.67
2019-03-27T21:27:30.311Z,6.80
2019-03-27T21:29:56.155Z,8.07
2019-03-27T21:32:22.039Z,7.13
2019-03-27T21:34:47.908Z,9.87
2019-03-27T21:37:13.765Z,9.80
2019-03-27T21:39:40.464Z,10.07
2019-03-27T21:42:06.334Z,10.30
2019-03-27T21:44:32.139Z,10.27
2019-03-27T21:46:58.015Z,8.43
2019-03-27T21:49:23.884Z,6.63
2019-03-27T21:51:49.739Z,7.53
2019-03-27T21:54:15.603Z,6.70
2019-03-27T21:56:41.459Z,8.30
2019-03-27T21:59:07.401Z,6.67
2019-03-27T22:01:33.229Z,6.93
2019-03-27T22:03:59.091Z,7.90
2019-03-27T22:06:24.933Z,5.93
2019-03-27T22:08:50.773Z,6.10
2019-03-27T22:11:16.682Z,7.90
2019-03-27T22:13:42.831Z,6.73
2019-03-27T22:16:08.665Z,5.43
2019-03-27T22:18:34.513Z,5.43
2019-03-27T22:21:00.369Z,4.47
2019-03-27T22:23:26.244Z,4.83
2019-03-27T22:25:52.092Z,4.37
2019-03-27T22:28:17.926Z,5.67
2019-03-27T22:30:43.782Z,4.00
2019-03-27T22:33:09.720Z,5.20
2019-03-27T22:35:35.550Z,5.43
2019-03-27T22:38:01.468Z,4.20
2019-03-27T22:40:27.315Z,6.50
2019-03-27T22:42:53.153Z,5.93
2019-03-27T22:45:19.089Z,6.73
2019-03-27T22:47:44.922Z,7.80
2019-03-27T22:50:11.237Z,7.00
2019-03-27T22:52:37.147Z,5.63
2019-03-27T22:55:05.674Z,7.67
2019-03-27T22:57:31.541Z,6.03
2019-03-27T22:59:57.402Z,6.30
2019-03-27T23:02:23.231Z,7.33
2019-03-27T23:04:49.083Z,5.97
2019-03-27T23:07:14.910Z,5.70
2019-03-27T23:09:40.776Z,6.23
2019-03-27T23:12:06.595Z,6.37
2019-03-27T23:14:32.473Z,6.73
2019-03-27T23:16:58.306Z,6.97
2019-03-27T23:19:24.138Z,8.07
2019-03-27T23:21:49.985Z,8.20
2019-03-27T23:24:15.821Z,9.10
2019-03-27T23:26:41.688Z,8.57
2019-03-27T23:29:07.521Z,10.93
2019-03-27T23:31:33.363Z,9.20
2019-03-27T23:34:00.484Z,7.87
2019-03-27T23:36:26.465Z,8.20
2019-03-27T23:38:52.308Z,8.77
2019-03-27T23:41:18.169Z,7.57
2019-03-27T23:43:44.018Z,9.47
2019-03-27T23:46:09.876Z,7.87
2019-03-27T23:48:35.740Z,9.37
2019-03-27T23:51:01.600Z,7.87
2019-03-27T23:53:27.452Z,8.40
2019-03-27T23:55:53.280Z,9.00
2019-03-27T23:58:19.136Z,9.60
